sensor_id;sensor_type;location;lat;lon;timestamp;P1;durP1;ratioP1;P2;durP2;ratioP2
10029;SDS011;5055;52.054;8.524;2022-08-03T00:00:34;0.20;;;0.20;;
10029;SDS011;5055;52.054;8.524;2022-08-03T00:03:05;0.13;;;0.13;;
10029;SDS011;5055;52.054;8.524;2022-08-03T00:05:33;0.10;;;0.10;;
10029;SDS011;5055;52.054;8.524;2022-08-03T00:08:03;0.10;;;0.10;;
10029;SDS011;5055;52.054;8.524;2022-08-03T00:10:33;0.17;;;0.17;;
10029;SDS011;5055;52.054;8.524;2022-08-03T00:13:02;0.10;;;0.10;;
10029;SDS011;5055;52.054;8.524;2022-08-03T00:15:30;0.10;;;0.10;;
10029;SDS011;5055;52.054;8.524;2022-08-03T00:17:59;0.10;;;0.10;;
10029;SDS011;5055;52.054;8.524;2022-08-03T00:20:27;0.20;;;0.20;;
10029;SDS011;5055;52.054;8.524;2022-08-03T00:22:55;0.20;;;0.20;;
10029;SDS011;5055;52.054;8.524;2022-08-03T00:25:24;0.10;;;0.10;;
10029;SDS011;5055;52.054;8.524;2022-08-03T00:27:54;0.13;;;0.13;;
10029;SDS011;5055;52.054;8.524;2022-08-03T00:30:23;0.10;;;0.10;;
10029;SDS011;5055;52.054;8.524;2022-08-03T00:32:56;0.10;;;0.10;;
10029;SDS011;5055;52.054;8.524;2022-08-03T00:35:24;0.20;;;0.20;;
10029;SDS011;5055;52.054;8.524;2022-08-03T00:38:13;0.20;;;0.20;;
10029;SDS011;5055;52.054;8.524;2022-08-03T00:40:41;0.10;;;0.10;;
10029;SDS011;5055;52.054;8.524;2022-08-03T00:43:11;0.10;;;0.10;;
10029;SDS011;5055;52.054;8.524;2022-08-03T00:45:40;0.10;;;0.10;;
10029;SDS011;5055;52.054;8.524;2022-08-03T00:48:09;0.20;;;0.20;;
10029;SDS011;5055;52.054;8.524;2022-08-03T00:50:58;0.10;;;0.10;;
10029;SDS011;5055;52.054;8.524;2022-08-03T00:53:27;0.20;;;0.20;;
10029;SDS011;5055;52.054;8.524;2022-08-03T00:55:55;0.10;;;0.10;;
10029;SDS011;5055;52.054;8.524;2022-08-03T00:58:26;0.20;;;0.20;;
10029;SDS011;5055;52.054;8.524;2022-08-03T01:00:54;0.17;;;0.17;;
10029;SDS011;5055;52.054;8.524;2022-08-03T01:03:23;0.20;;;0.20;;
10029;SDS011;5055;52.054;8.524;2022-08-03T01:05:52;0.17;;;0.17;;
10029;SDS011;5055;52.054;8.524;2022-08-03T01:08:27;0.20;;;0.20;;
10029;SDS011;5055;52.054;8.524;2022-08-03T01:11:05;0.10;;;0.10;;
10029;SDS011;5055;52.054;8.524;2022-08-03T01:13:47;0.10;;;0.10;;
10029;SDS011;5055;52.054;8.524;2022-08-03T01:16:31;0.17;;;0.17;;
10029;SDS011;5055;52.054;8.524;2022-08-03T01:19:09;0.10;;;0.10;;
10029;SDS011;5055;52.054;8.524;2022-08-03T01:21:53;0.20;;;0.20;;
10029;SDS011;5055;52.054;8.524;2022-08-03T01:24:36;0.10;;;0.10;;
10029;SDS011;5055;52.054;8.524;2022-08-03T01:27:16;0.10;;;0.10;;
10029;SDS011;5055;52.054;8.524;2022-08-03T01:29:55;0.20;;;0.20;;
10029;SDS011;5055;52.054;8.524;2022-08-03T01:32:34;0.10;;;0.10;;
10029;SDS011;5055;52.054;8.524;2022-08-03T01:35:28;0.10;;;0.10;;
10029;SDS011;5055;52.054;8.524;2022-08-03T01:38:06;0.20;;;0.20;;
10029;SDS011;5055;52.054;8.524;2022-08-03T01:40:39;0.10;;;0.10;;
10029;SDS011;5055;52.054;8.524;2022-08-03T01:43:09;0.20;;;0.20;;
10029;SDS011;5055;52.054;8.524;2022-08-03T01:46:03;0.10;;;0.10;;
10029;SDS011;5055;52.054;8.524;2022-08-03T01:48:32;0.10;;;0.10;;
10029;SDS011;5055;52.054;8.524;2022-08-03T01:51:02;0.20;;;0.20;;
10029;SDS011;5055;52.054;8.524;2022-08-03T01:53:32;0.20;;;0.20;;
10029;SDS011;5055;52.054;8.524;2022-08-03T01:56:03;0.17;;;0.17;;
10029;SDS011;5055;52.054;8.524;2022-08-03T01:58:34;0.20;;;0.20;;
10029;SDS011;5055;52.054;8.524;2022-08-03T02:01:05;0.10;;;0.10;;
10029;SDS011;5055;52.054;8.524;2022-08-03T02:03:36;0.10;;;0.10;;
10029;SDS011;5055;52.054;8.524;2022-08-03T02:06:26;0.10;;;0.10;;
10029;SDS011;5055;52.054;8.524;2022-08-03T02:09:17;0.20;;;0.20;;
10029;SDS011;5055;52.054;8.524;2022-08-03T02:11:48;0.20;;;0.20;;
10029;SDS011;5055;52.054;8.524;2022-08-03T02:14:19;0.17;;;0.17;;
10029;SDS011;5055;52.054;8.524;2022-08-03T02:16:50;0.10;;;0.10;;
10029;SDS011;5055;52.054;8.524;2022-08-03T02:19:19;0.20;;;0.20;;
10029;SDS011;5055;52.054;8.524;2022-08-03T02:21:49;0.10;;;0.10;;
10029;SDS011;5055;52.054;8.524;2022-08-03T02:24:26;0.20;;;0.20;;
10029;SDS011;5055;52.054;8.524;2022-08-03T02:26:56;0.10;;;0.10;;
10029;SDS011;5055;52.054;8.524;2022-08-03T02:29:26;0.20;;;0.20;;
10029;SDS011;5055;52.054;8.524;2022-08-03T02:32:08;0.20;;;0.20;;
10029;SDS011;5055;52.054;8.524;2022-08-03T02:34:39;0.10;;;0.10;;
10029;SDS011;5055;52.054;8.524;2022-08-03T02:37:12;0.10;;;0.10;;
10029;SDS011;5055;52.054;8.524;2022-08-03T02:39:44;0.20;;;0.20;;
10029;SDS011;5055;52.054;8.524;2022-08-03T02:42:17;0.10;;;0.10;;
10029;SDS011;5055;52.054;8.524;2022-08-03T02:44:56;0.17;;;0.17;;
10029;SDS011;5055;52.054;8.524;2022-08-03T02:47:39;0.20;;;0.20;;
10029;SDS011;5055;52.054;8.524;2022-08-03T02:50:20;0.20;;;0.20;;
10029;SDS011;5055;52.054;8.524;2022-08-03T02:52:50;0.20;;;0.20;;
10029;SDS011;5055;52.054;8.524;2022-08-03T02:55:19;0.10;;;0.10;;
10029;SDS011;5055;52.054;8.524;2022-08-03T02:57:50;0.20;;;0.20;;
10029;SDS011;5055;52.054;8.524;2022-08-03T03:00:19;0.17;;;0.17;;
10029;SDS011;5055;52.054;8.524;2022-08-03T03:03:01;0.20;;;0.20;;
10029;SDS011;5055;52.054;8.524;2022-08-03T03:05:31;0.10;;;0.10;;
10029;SDS011;5055;52.054;8.524;2022-08-03T03:08:22;0.17;;;0.17;;
10029;SDS011;5055;52.054;8.524;2022-08-03T03:10:54;0.10;;;0.10;;
10029;SDS011;5055;52.054;8.524;2022-08-03T03:13:25;0.10;;;0.10;;
10029;SDS011;5055;52.054;8.524;2022-08-03T03:15:55;0.20;;;0.20;;
10029;SDS011;5055;52.054;8.524;2022-08-03T03:18:28;0.20;;;0.20;;
10029;SDS011;5055;52.054;8.524;2022-08-03T03:20:58;0.20;;;0.20;;
10029;SDS011;5055;52.054;8.524;2022-08-03T03:23:28;0.20;;;0.20;;
10029;SDS011;5055;52.054;8.524;2022-08-03T03:25:59;0.20;;;0.20;;
10029;SDS011;5055;52.054;8.524;2022-08-03T03:28:28;0.20;;;0.20;;
10029;SDS011;5055;52.054;8.524;2022-08-03T03:30:58;0.20;;;0.20;;
10029;SDS011;5055;52.054;8.524;2022-08-03T03:33:28;0.20;;;0.20;;
10029;SDS011;5055;52.054;8.524;2022-08-03T03:35:57;0.20;;;0.20;;
10029;SDS011;5055;52.054;8.524;2022-08-03T03:38:26;0.10;;;0.10;;
10029;SDS011;5055;52.054;8.524;2022-08-03T03:40:54;0.20;;;0.20;;
10029;SDS011;5055;52.054;8.524;2022-08-03T03:43:23;0.20;;;0.20;;
10029;SDS011;5055;52.054;8.524;2022-08-03T03:45:52;0.20;;;0.20;;
10029;SDS011;5055;52.054;8.524;2022-08-03T03:48:22;0.20;;;0.20;;
10029;SDS011;5055;52.054;8.524;2022-08-03T03:50:53;0.10;;;0.10;;
10029;SDS011;5055;52.054;8.524;2022-08-03T03:53:22;0.10;;;0.10;;
10029;SDS011;5055;52.054;8.524;2022-08-03T03:55:51;0.20;;;0.20;;
10029;SDS011;5055;52.054;8.524;2022-08-03T03:58:28;0.20;;;0.20;;
10029;SDS011;5055;52.054;8.524;2022-08-03T04:00:58;0.20;;;0.20;;
10029;SDS011;5055;52.054;8.524;2022-08-03T04:03:27;0.20;;;0.20;;
10029;SDS011;5055;52.054;8.524;2022-08-03T04:05:57;0.20;;;0.20;;
10029;SDS011;5055;52.054;8.524;2022-08-03T04:08:43;0.20;;;0.20;;
10029;SDS011;5055;52.054;8.524;2022-08-03T04:11:30;0.20;;;0.20;;
10029;SDS011;5055;52.054;8.524;2022-08-03T04:14:05;0.10;;;0.10;;
10029;SDS011;5055;52.054;8.524;2022-08-03T04:16:38;0.13;;;0.13;;
10029;SDS011;5055;52.054;8.524;2022-08-03T04:19:12;0.20;;;0.20;;
10029;SDS011;5055;52.054;8.524;2022-08-03T04:21:51;0.20;;;0.20;;
10029;SDS011;5055;52.054;8.524;2022-08-03T04:24:22;0.20;;;0.20;;
10029;SDS011;5055;52.054;8.524;2022-08-03T04:26:54;0.20;;;0.20;;
10029;SDS011;5055;52.054;8.524;2022-08-03T04:29:24;0.20;;;0.20;;
10029;SDS011;5055;52.054;8.524;2022-08-03T04:31:55;0.10;;;0.10;;
10029;SDS011;5055;52.054;8.524;2022-08-03T04:34:25;0.10;;;0.10;;
10029;SDS011;5055;52.054;8.524;2022-08-03T04:36:57;0.20;;;0.20;;
10029;SDS011;5055;52.054;8.524;2022-08-03T04:39:28;0.17;;;0.17;;
10029;SDS011;5055;52.054;8.524;2022-08-03T04:42:01;0.10;;;0.10;;
10029;SDS011;5055;52.054;8.524;2022-08-03T04:44:34;0.10;;;0.10;;
10029;SDS011;5055;52.054;8.524;2022-08-03T04:47:06;0.20;;;0.20;;
10029;SDS011;5055;52.054;8.524;2022-08-03T04:49:35;0.20;;;0.20;;
10029;SDS011;5055;52.054;8.524;2022-08-03T04:52:07;0.20;;;0.20;;
10029;SDS011;5055;52.054;8.524;2022-08-03T04:54:39;0.20;;;0.20;;
10029;SDS011;5055;52.054;8.524;2022-08-03T04:57:16;0.17;;;0.17;;
10029;SDS011;5055;52.054;8.524;2022-08-03T04:59:49;0.20;;;0.20;;
10029;SDS011;5055;52.054;8.524;2022-08-03T05:02:29;0.10;;;0.10;;
10029;SDS011;5055;52.054;8.524;2022-08-03T05:04:57;0.10;;;0.10;;
10029;SDS011;5055;52.054;8.524;2022-08-03T05:07:27;0.20;;;0.20;;
10029;SDS011;5055;52.054;8.524;2022-08-03T05:10:02;0.10;;;0.10;;
10029;SDS011;5055;52.054;8.524;2022-08-03T05:12:41;0.20;;;0.20;;
10029;SDS011;5055;52.054;8.524;2022-08-03T05:15:10;0.20;;;0.20;;
10029;SDS011;5055;52.054;8.524;2022-08-03T05:17:39;0.10;;;0.10;;
10029;SDS011;5055;52.054;8.524;2022-08-03T05:20:09;0.10;;;0.10;;
10029;SDS011;5055;52.054;8.524;2022-08-03T05:22:39;0.20;;;0.20;;
10029;SDS011;5055;52.054;8.524;2022-08-03T05:25:08;0.10;;;0.10;;
10029;SDS011;5055;52.054;8.524;2022-08-03T05:27:46;0.13;;;0.13;;
10029;SDS011;5055;52.054;8.524;2022-08-03T05:30:14;0.10;;;0.10;;
10029;SDS011;5055;52.054;8.524;2022-08-03T05:32:59;0.10;;;0.10;;
10029;SDS011;5055;52.054;8.524;2022-08-03T05:35:29;0.10;;;0.10;;
10029;SDS011;5055;52.054;8.524;2022-08-03T05:38:19;0.10;;;0.10;;
10029;SDS011;5055;52.054;8.524;2022-08-03T05:40:54;0.10;;;0.10;;
10029;SDS011;5055;52.054;8.524;2022-08-03T05:43:43;0.10;;;0.10;;
10029;SDS011;5055;52.054;8.524;2022-08-03T05:46:12;0.10;;;0.10;;
10029;SDS011;5055;52.054;8.524;2022-08-03T05:48:40;0.10;;;0.10;;
10029;SDS011;5055;52.054;8.524;2022-08-03T05:51:09;0.10;;;0.10;;
10029;SDS011;5055;52.054;8.524;2022-08-03T05:53:40;0.10;;;0.10;;
10029;SDS011;5055;52.054;8.524;2022-08-03T05:56:09;0.10;;;0.10;;
10029;SDS011;5055;52.054;8.524;2022-08-03T05:58:42;0.10;;;0.10;;
10029;SDS011;5055;52.054;8.524;2022-08-03T06:01:12;0.20;;;0.20;;
10029;SDS011;5055;52.054;8.524;2022-08-03T06:03:41;0.10;;;0.10;;
10029;SDS011;5055;52.054;8.524;2022-08-03T06:06:09;0.10;;;0.10;;
10029;SDS011;5055;52.054;8.524;2022-08-03T06:08:39;0.10;;;0.10;;
10029;SDS011;5055;52.054;8.524;2022-08-03T06:11:08;0.10;;;0.10;;
10029;SDS011;5055;52.054;8.524;2022-08-03T06:13:37;0.10;;;0.10;;
10029;SDS011;5055;52.054;8.524;2022-08-03T06:16:06;0.10;;;0.10;;
10029;SDS011;5055;52.054;8.524;2022-08-03T06:18:34;0.10;;;0.10;;
10029;SDS011;5055;52.054;8.524;2022-08-03T06:21:03;0.10;;;0.10;;
10029;SDS011;5055;52.054;8.524;2022-08-03T06:23:42;0.10;;;0.10;;
10029;SDS011;5055;52.054;8.524;2022-08-03T06:26:21;0.10;;;0.10;;
10029;SDS011;5055;52.054;8.524;2022-08-03T06:28:51;0.10;;;0.10;;
10029;SDS011;5055;52.054;8.524;2022-08-03T06:31:21;0.10;;;0.10;;
10029;SDS011;5055;52.054;8.524;2022-08-03T06:34:02;0.10;;;0.10;;
10029;SDS011;5055;52.054;8.524;2022-08-03T06:36:51;0.10;;;0.10;;
10029;SDS011;5055;52.054;8.524;2022-08-03T06:39:28;0.10;;;0.10;;
10029;SDS011;5055;52.054;8.524;2022-08-03T06:41:57;0.10;;;0.10;;
10029;SDS011;5055;52.054;8.524;2022-08-03T06:44:25;0.10;;;0.10;;
10029;SDS011;5055;52.054;8.524;2022-08-03T06:46:54;0.10;;;0.10;;
10029;SDS011;5055;52.054;8.524;2022-08-03T06:49:23;0.10;;;0.10;;
10029;SDS011;5055;52.054;8.524;2022-08-03T06:51:51;0.10;;;0.10;;
10029;SDS011;5055;52.054;8.524;2022-08-03T06:54:33;0.10;;;0.10;;
10029;SDS011;5055;52.054;8.524;2022-08-03T06:57:05;0.13;;;0.13;;
10029;SDS011;5055;52.054;8.524;2022-08-03T06:59:36;0.10;;;0.10;;
10029;SDS011;5055;52.054;8.524;2022-08-03T07:02:25;0.10;;;0.10;;
10029;SDS011;5055;52.054;8.524;2022-08-03T07:04:54;0.10;;;0.10;;
10029;SDS011;5055;52.054;8.524;2022-08-03T07:07:23;0.10;;;0.10;;
10029;SDS011;5055;52.054;8.524;2022-08-03T07:09:53;0.10;;;0.10;;
10029;SDS011;5055;52.054;8.524;2022-08-03T07:12:27;0.10;;;0.10;;
10029;SDS011;5055;52.054;8.524;2022-08-03T07:14:56;0.10;;;0.10;;
10029;SDS011;5055;52.054;8.524;2022-08-03T07:17:27;0.00;;;0.00;;
10029;SDS011;5055;52.054;8.524;2022-08-03T07:19:57;0.10;;;0.10;;
10029;SDS011;5055;52.054;8.524;2022-08-03T07:22:26;0.10;;;0.10;;
10029;SDS011;5055;52.054;8.524;2022-08-03T07:24:56;0.10;;;0.10;;
10029;SDS011;5055;52.054;8.524;2022-08-03T07:27:25;0.00;;;0.00;;
10029;SDS011;5055;52.054;8.524;2022-08-03T07:29:55;0.10;;;0.10;;
10029;SDS011;5055;52.054;8.524;2022-08-03T07:32:23;0.10;;;0.10;;
10029;SDS011;5055;52.054;8.524;2022-08-03T07:34:53;0.10;;;0.10;;
10029;SDS011;5055;52.054;8.524;2022-08-03T07:37:26;0.10;;;0.10;;
10029;SDS011;5055;52.054;8.524;2022-08-03T07:39:56;0.00;;;0.00;;
10029;SDS011;5055;52.054;8.524;2022-08-03T07:42:25;0.10;;;0.10;;
10029;SDS011;5055;52.054;8.524;2022-08-03T07:44:58;0.10;;;0.10;;
10029;SDS011;5055;52.054;8.524;2022-08-03T07:47:27;0.10;;;0.10;;
10029;SDS011;5055;52.054;8.524;2022-08-03T07:50:01;0.10;;;0.10;;
10029;SDS011;5055;52.054;8.524;2022-08-03T07:52:31;0.00;;;0.00;;
10029;SDS011;5055;52.054;8.524;2022-08-03T07:55:17;0.10;;;0.10;;
10029;SDS011;5055;52.054;8.524;2022-08-03T07:57:47;0.10;;;0.10;;
10029;SDS011;5055;52.054;8.524;2022-08-03T08:00:30;0.10;;;0.10;;
10029;SDS011;5055;52.054;8.524;2022-08-03T08:02:59;0.10;;;0.10;;
10029;SDS011;5055;52.054;8.524;2022-08-03T08:05:28;0.10;;;0.10;;
10029;SDS011;5055;52.054;8.524;2022-08-03T08:07:56;0.10;;;0.10;;
10029;SDS011;5055;52.054;8.524;2022-08-03T08:10:26;0.10;;;0.10;;
10029;SDS011;5055;52.054;8.524;2022-08-03T08:12:55;0.10;;;0.10;;
10029;SDS011;5055;52.054;8.524;2022-08-03T08:15:24;0.10;;;0.10;;
10029;SDS011;5055;52.054;8.524;2022-08-03T08:17:53;0.10;;;0.10;;
10029;SDS011;5055;52.054;8.524;2022-08-03T08:20:24;0.10;;;0.10;;
10029;SDS011;5055;52.054;8.524;2022-08-03T08:22:57;0.10;;;0.10;;
10029;SDS011;5055;52.054;8.524;2022-08-03T08:25:30;0.10;;;0.10;;
10029;SDS011;5055;52.054;8.524;2022-08-03T08:27:59;0.00;;;0.00;;
10029;SDS011;5055;52.054;8.524;2022-08-03T08:30:49;0.00;;;0.00;;
10029;SDS011;5055;52.054;8.524;2022-08-03T08:33:18;0.10;;;0.10;;
10029;SDS011;5055;52.054;8.524;2022-08-03T08:35:49;0.10;;;0.10;;
10029;SDS011;5055;52.054;8.524;2022-08-03T08:38:19;0.10;;;0.10;;
10029;SDS011;5055;52.054;8.524;2022-08-03T08:40:50;0.05;;;0.05;;
10029;SDS011;5055;52.054;8.524;2022-08-03T08:43:18;0.00;;;0.00;;
10029;SDS011;5055;52.054;8.524;2022-08-03T08:45:48;0.10;;;0.10;;
10029;SDS011;5055;52.054;8.524;2022-08-03T08:48:17;0.13;;;0.13;;
10029;SDS011;5055;52.054;8.524;2022-08-03T08:50:51;0.10;;;0.10;;
10029;SDS011;5055;52.054;8.524;2022-08-03T08:53:20;0.08;;;0.08;;
10029;SDS011;5055;52.054;8.524;2022-08-03T08:55:58;0.00;;;0.00;;
10029;SDS011;5055;52.054;8.524;2022-08-03T08:58:28;0.10;;;0.10;;
10029;SDS011;5055;52.054;8.524;2022-08-03T09:01:03;0.10;;;0.10;;
10029;SDS011;5055;52.054;8.524;2022-08-03T09:03:32;0.10;;;0.10;;
10029;SDS011;5055;52.054;8.524;2022-08-03T09:06:01;0.10;;;0.10;;
10029;SDS011;5055;52.054;8.524;2022-08-03T09:08:32;0.00;;;0.00;;
10029;SDS011;5055;52.054;8.524;2022-08-03T09:11:02;0.10;;;0.10;;
10029;SDS011;5055;52.054;8.524;2022-08-03T09:13:33;0.10;;;0.10;;
10029;SDS011;5055;52.054;8.524;2022-08-03T09:16:09;0.10;;;0.10;;
10029;SDS011;5055;52.054;8.524;2022-08-03T09:18:39;0.05;;;0.05;;
10029;SDS011;5055;52.054;8.524;2022-08-03T09:21:12;0.10;;;0.10;;
10029;SDS011;5055;52.054;8.524;2022-08-03T09:24:01;0.00;;;0.00;;
10029;SDS011;5055;52.054;8.524;2022-08-03T09:26:48;0.10;;;0.10;;
10029;SDS011;5055;52.054;8.524;2022-08-03T09:29:22;0.10;;;0.10;;
10029;SDS011;5055;52.054;8.524;2022-08-03T09:32:02;0.00;;;0.00;;
10029;SDS011;5055;52.054;8.524;2022-08-03T09:34:31;0.10;;;0.10;;
10029;SDS011;5055;52.054;8.524;2022-08-03T09:37:00;0.10;;;0.10;;
10029;SDS011;5055;52.054;8.524;2022-08-03T09:39:28;0.08;;;0.08;;
10029;SDS011;5055;52.054;8.524;2022-08-03T09:42:09;0.00;;;0.00;;
10029;SDS011;5055;52.054;8.524;2022-08-03T09:44:41;0.10;;;0.10;;
10029;SDS011;5055;52.054;8.524;2022-08-03T09:47:11;0.10;;;0.10;;
10029;SDS011;5055;52.054;8.524;2022-08-03T09:49:42;0.10;;;0.10;;
10029;SDS011;5055;52.054;8.524;2022-08-03T09:52:28;0.00;;;0.00;;
10029;SDS011;5055;52.054;8.524;2022-08-03T09:55:16;0.00;;;0.00;;
10029;SDS011;5055;52.054;8.524;2022-08-03T09:58:07;0.10;;;0.10;;
10029;SDS011;5055;52.054;8.524;2022-08-03T10:00:51;0.10;;;0.10;;
10029;SDS011;5055;52.054;8.524;2022-08-03T10:03:21;0.10;;;0.10;;
10029;SDS011;5055;52.054;8.524;2022-08-03T10:05:50;0.10;;;0.10;;
10029;SDS011;5055;52.054;8.524;2022-08-03T10:08:25;0.10;;;0.10;;
10029;SDS011;5055;52.054;8.524;2022-08-03T10:10:53;0.10;;;0.10;;
10029;SDS011;5055;52.054;8.524;2022-08-03T10:13:25;0.00;;;0.00;;
10029;SDS011;5055;52.054;8.524;2022-08-03T10:15:54;0.00;;;0.00;;
10029;SDS011;5055;52.054;8.524;2022-08-03T10:18:43;0.10;;;0.10;;
10029;SDS011;5055;52.054;8.524;2022-08-03T10:21:11;0.10;;;0.10;;
10029;SDS011;5055;52.054;8.524;2022-08-03T10:23:49;0.10;;;0.10;;
10029;SDS011;5055;52.054;8.524;2022-08-03T10:26:20;0.03;;;0.03;;
10029;SDS011;5055;52.054;8.524;2022-08-03T10:28:52;0.00;;;0.00;;
10029;SDS011;5055;52.054;8.524;2022-08-03T10:31:22;0.00;;;0.00;;
10029;SDS011;5055;52.054;8.524;2022-08-03T10:33:51;0.10;;;0.10;;
10029;SDS011;5055;52.054;8.524;2022-08-03T10:36:26;0.10;;;0.10;;
10029;SDS011;5055;52.054;8.524;2022-08-03T10:38:58;0.10;;;0.10;;
10029;SDS011;5055;52.054;8.524;2022-08-03T10:41:30;0.00;;;0.00;;
10029;SDS011;5055;52.054;8.524;2022-08-03T10:46:38;0.10;;;0.10;;
10029;SDS011;5055;52.054;8.524;2022-08-03T10:49:11;0.10;;;0.10;;
10029;SDS011;5055;52.054;8.524;2022-08-03T10:51:41;0.00;;;0.00;;
10029;SDS011;5055;52.054;8.524;2022-08-03T10:57:49;0.08;;;0.08;;
10029;SDS011;5055;52.054;8.524;2022-08-03T11:00:26;0.10;;;0.10;;
10029;SDS011;5055;52.054;8.524;2022-08-03T11:03:06;0.00;;;0.00;;
10029;SDS011;5055;52.054;8.524;2022-08-03T11:05:37;0.10;;;0.10;;
10029;SDS011;5055;52.054;8.524;2022-08-03T11:08:20;0.10;;;0.10;;
10029;SDS011;5055;52.054;8.524;2022-08-03T11:10:51;0.00;;;0.00;;
10029;SDS011;5055;52.054;8.524;2022-08-03T11:13:22;0.10;;;0.10;;
10029;SDS011;5055;52.054;8.524;2022-08-03T11:15:56;0.00;;;0.00;;
10029;SDS011;5055;52.054;8.524;2022-08-03T11:18:29;0.00;;;0.00;;
10029;SDS011;5055;52.054;8.524;2022-08-03T11:20:58;0.00;;;0.00;;
10029;SDS011;5055;52.054;8.524;2022-08-03T11:26:31;0.00;;;0.00;;
10029;SDS011;5055;52.054;8.524;2022-08-03T11:31:57;0.00;;;0.00;;
10029;SDS011;5055;52.054;8.524;2022-08-03T11:34:25;0.00;;;0.00;;
10029;SDS011;5055;52.054;8.524;2022-08-03T11:39:52;0.00;;;0.00;;
10029;SDS011;5055;52.054;8.524;2022-08-03T11:42:38;0.10;;;0.10;;
10029;SDS011;5055;52.054;8.524;2022-08-03T11:45:13;0.00;;;0.00;;
10029;SDS011;5055;52.054;8.524;2022-08-03T11:47:44;0.10;;;0.10;;
10029;SDS011;5055;52.054;8.524;2022-08-03T11:50:16;0.00;;;0.00;;
10029;SDS011;5055;52.054;8.524;2022-08-03T11:52:47;0.00;;;0.00;;
10029;SDS011;5055;52.054;8.524;2022-08-03T11:55:16;0.08;;;0.08;;
10029;SDS011;5055;52.054;8.524;2022-08-03T11:57:47;0.00;;;0.00;;
10029;SDS011;5055;52.054;8.524;2022-08-03T12:00:36;0.00;;;0.00;;
10029;SDS011;5055;52.054;8.524;2022-08-03T12:03:08;0.03;;;0.03;;
10029;SDS011;5055;52.054;8.524;2022-08-03T12:05:42;0.10;;;0.10;;
10029;SDS011;5055;52.054;8.524;2022-08-03T12:08:20;0.00;;;0.00;;
10029;SDS011;5055;52.054;8.524;2022-08-03T12:10:58;0.10;;;0.10;;
10029;SDS011;5055;52.054;8.524;2022-08-03T12:16:38;0.00;;;0.00;;
10029;SDS011;5055;52.054;8.524;2022-08-03T12:19:08;0.10;;;0.10;;
10029;SDS011;5055;52.054;8.524;2022-08-03T12:21:44;0.00;;;0.00;;
10029;SDS011;5055;52.054;8.524;2022-08-03T12:24:22;0.00;;;0.00;;
10029;SDS011;5055;52.054;8.524;2022-08-03T12:26:53;0.00;;;0.00;;
10029;SDS011;5055;52.054;8.524;2022-08-03T12:29:26;0.00;;;0.00;;
10029;SDS011;5055;52.054;8.524;2022-08-03T12:31:55;0.00;;;0.00;;
10029;SDS011;5055;52.054;8.524;2022-08-03T12:34:25;0.00;;;0.00;;
10029;SDS011;5055;52.054;8.524;2022-08-03T12:37:13;0.00;;;0.00;;
10029;SDS011;5055;52.054;8.524;2022-08-03T12:39:48;0.00;;;0.00;;
10029;SDS011;5055;52.054;8.524;2022-08-03T12:42:29;0.10;;;0.10;;
10029;SDS011;5055;52.054;8.524;2022-08-03T12:47:52;0.00;;;0.00;;
10029;SDS011;5055;52.054;8.524;2022-08-03T12:50:24;0.00;;;0.00;;
10029;SDS011;5055;52.054;8.524;2022-08-03T12:52:57;0.00;;;0.00;;
10029;SDS011;5055;52.054;8.524;2022-08-03T12:55:27;0.00;;;0.00;;
10029;SDS011;5055;52.054;8.524;2022-08-03T12:58:29;0.00;;;0.00;;
10029;SDS011;5055;52.054;8.524;2022-08-03T13:01:02;0.00;;;0.00;;
10029;SDS011;5055;52.054;8.524;2022-08-03T13:03:41;0.00;;;0.00;;
10029;SDS011;5055;52.054;8.524;2022-08-03T13:06:19;0.00;;;0.00;;
10029;SDS011;5055;52.054;8.524;2022-08-03T13:08:49;0.00;;;0.00;;
10029;SDS011;5055;52.054;8.524;2022-08-03T13:11:30;0.00;;;0.00;;
10029;SDS011;5055;52.054;8.524;2022-08-03T13:14:18;0.00;;;0.00;;
10029;SDS011;5055;52.054;8.524;2022-08-03T13:16:49;0.00;;;0.00;;
10029;SDS011;5055;52.054;8.524;2022-08-03T13:19:17;0.10;;;0.10;;
10029;SDS011;5055;52.054;8.524;2022-08-03T13:21:47;0.00;;;0.00;;
10029;SDS011;5055;52.054;8.524;2022-08-03T13:24:30;0.00;;;0.00;;
10029;SDS011;5055;52.054;8.524;2022-08-03T13:26:59;0.00;;;0.00;;
10029;SDS011;5055;52.054;8.524;2022-08-03T13:29:47;0.10;;;0.10;;
10029;SDS011;5055;52.054;8.524;2022-08-03T13:32:16;0.00;;;0.00;;
10029;SDS011;5055;52.054;8.524;2022-08-03T13:34:45;0.00;;;0.00;;
10029;SDS011;5055;52.054;8.524;2022-08-03T13:37:15;0.10;;;0.10;;
10029;SDS011;5055;52.054;8.524;2022-08-03T13:39:43;0.00;;;0.00;;
10029;SDS011;5055;52.054;8.524;2022-08-03T13:42:25;0.00;;;0.00;;
10029;SDS011;5055;52.054;8.524;2022-08-03T13:44:54;0.00;;;0.00;;
10029;SDS011;5055;52.054;8.524;2022-08-03T13:47:24;0.00;;;0.00;;
10029;SDS011;5055;52.054;8.524;2022-08-03T13:49:52;0.00;;;0.00;;
10029;SDS011;5055;52.054;8.524;2022-08-03T13:52:29;0.00;;;0.00;;
10029;SDS011;5055;52.054;8.524;2022-08-03T13:54:58;0.00;;;0.00;;
10029;SDS011;5055;52.054;8.524;2022-08-03T13:57:27;0.00;;;0.00;;
10029;SDS011;5055;52.054;8.524;2022-08-03T14:00:16;0.10;;;0.10;;
10029;SDS011;5055;52.054;8.524;2022-08-03T14:02:53;0.00;;;0.00;;
10029;SDS011;5055;52.054;8.524;2022-08-03T14:05:39;0.00;;;0.00;;
10029;SDS011;5055;52.054;8.524;2022-08-03T14:08:09;0.05;;;0.05;;
10029;SDS011;5055;52.054;8.524;2022-08-03T14:10:39;0.00;;;0.00;;
10029;SDS011;5055;52.054;8.524;2022-08-03T14:13:09;0.00;;;0.00;;
10029;SDS011;5055;52.054;8.524;2022-08-03T14:15:43;0.00;;;0.00;;
10029;SDS011;5055;52.054;8.524;2022-08-03T14:18:15;0.03;;;0.03;;
10029;SDS011;5055;52.054;8.524;2022-08-03T14:20:59;0.00;;;0.00;;
10029;SDS011;5055;52.054;8.524;2022-08-03T14:23:33;0.00;;;0.00;;
10029;SDS011;5055;52.054;8.524;2022-08-03T14:26:04;0.00;;;0.00;;
10029;SDS011;5055;52.054;8.524;2022-08-03T14:28:34;0.00;;;0.00;;
10029;SDS011;5055;52.054;8.524;2022-08-03T14:31:03;0.00;;;0.00;;
10029;SDS011;5055;52.054;8.524;2022-08-03T14:33:51;0.00;;;0.00;;
10029;SDS011;5055;52.054;8.524;2022-08-03T14:36:20;0.00;;;0.00;;
10029;SDS011;5055;52.054;8.524;2022-08-03T14:38:53;0.00;;;0.00;;
10029;SDS011;5055;52.054;8.524;2022-08-03T14:41:26;0.00;;;0.00;;
10029;SDS011;5055;52.054;8.524;2022-08-03T14:43:55;0.00;;;0.00;;
10029;SDS011;5055;52.054;8.524;2022-08-03T14:46:27;0.00;;;0.00;;
10029;SDS011;5055;52.054;8.524;2022-08-03T14:48:57;0.00;;;0.00;;
10029;SDS011;5055;52.054;8.524;2022-08-03T14:51:45;0.00;;;0.00;;
10029;SDS011;5055;52.054;8.524;2022-08-03T14:54:20;0.00;;;0.00;;
10029;SDS011;5055;52.054;8.524;2022-08-03T14:56:49;0.00;;;0.00;;
10029;SDS011;5055;52.054;8.524;2022-08-03T14:59:17;0.00;;;0.00;;
10029;SDS011;5055;52.054;8.524;2022-08-03T15:01:46;0.00;;;0.00;;
10029;SDS011;5055;52.054;8.524;2022-08-03T15:04:31;0.00;;;0.00;;
10029;SDS011;5055;52.054;8.524;2022-08-03T15:07:00;0.00;;;0.00;;
10029;SDS011;5055;52.054;8.524;2022-08-03T15:09:30;0.00;;;0.00;;
10029;SDS011;5055;52.054;8.524;2022-08-03T15:11:58;0.00;;;0.00;;
10029;SDS011;5055;52.054;8.524;2022-08-03T15:14:27;0.00;;;0.00;;
10029;SDS011;5055;52.054;8.524;2022-08-03T15:17:00;0.00;;;0.00;;
10029;SDS011;5055;52.054;8.524;2022-08-03T15:19:30;0.00;;;0.00;;
10029;SDS011;5055;52.054;8.524;2022-08-03T15:22:49;0.00;;;0.00;;
10029;SDS011;5055;52.054;8.524;2022-08-03T15:25:40;0.00;;;0.00;;
10029;SDS011;5055;52.054;8.524;2022-08-03T15:28:28;0.00;;;0.00;;
10029;SDS011;5055;52.054;8.524;2022-08-03T15:30:57;0.00;;;0.00;;
10029;SDS011;5055;52.054;8.524;2022-08-03T15:33:26;0.00;;;0.00;;
10029;SDS011;5055;52.054;8.524;2022-08-03T15:35:54;0.00;;;0.00;;
10029;SDS011;5055;52.054;8.524;2022-08-03T15:38:23;0.00;;;0.00;;
10029;SDS011;5055;52.054;8.524;2022-08-03T15:40:53;0.00;;;0.00;;
10029;SDS011;5055;52.054;8.524;2022-08-03T15:43:22;0.00;;;0.00;;
10029;SDS011;5055;52.054;8.524;2022-08-03T15:45:50;0.00;;;0.00;;
10029;SDS011;5055;52.054;8.524;2022-08-03T15:48:39;0.00;;;0.00;;
10029;SDS011;5055;52.054;8.524;2022-08-03T15:51:08;0.00;;;0.00;;
10029;SDS011;5055;52.054;8.524;2022-08-03T15:53:37;0.00;;;0.00;;
10029;SDS011;5055;52.054;8.524;2022-08-03T15:56:07;0.00;;;0.00;;
10029;SDS011;5055;52.054;8.524;2022-08-03T15:58:41;0.00;;;0.00;;